createdAt,value
2017-05-24T00:00:07.261Z,95862.51
2017-05-24T00:02:34.757Z,95852.19
2017-05-24T00:05:03.143Z,95859.16
2017-05-24T00:07:29.408Z,95858.59
2017-05-24T00:09:56.404Z,95856.18
2017-05-24T00:12:22.627Z,95854.11
2017-05-24T00:14:49.585Z,95850.33
2017-05-24T00:17:15.839Z,95855.39
2017-05-24T00:19:42.050Z,95859.69
2017-05-24T00:22:08.476Z,95865.29
2017-05-24T00:24:38.415Z,95862.27
2017-05-24T00:27:04.647Z,95862.25
2017-05-24T00:29:35.166Z,95864.90
2017-05-24T00:32:02.123Z,95861.30
2017-05-24T00:34:28.347Z,95861.73
2017-05-24T00:36:54.784Z,95862.14
2017-05-24T00:39:28.626Z,95860.63
2017-05-24T00:41:54.874Z,95864.59
2017-05-24T00:44:21.090Z,95858.02
2017-05-24T00:46:47.324Z,95855.18
2017-05-24T00:49:13.556Z,95856.69
2017-05-24T00:51:39.791Z,95854.66
2017-05-24T00:54:06.017Z,95855.78
2017-05-24T00:56:32.274Z,95855.59
2017-05-24T00:58:58.709Z,95859.20
2017-05-24T01:01:24.955Z,95858.48
2017-05-24T01:03:51.949Z,95854.59
2017-05-24T01:06:18.206Z,95852.93
2017-05-24T01:08:44.478Z,95854.99
2017-05-24T01:11:10.709Z,95858.20
2017-05-24T01:13:36.928Z,95864.27
2017-05-24T01:16:03.148Z,95861.84
2017-05-24T01:18:29.594Z,95870.07
2017-05-24T01:21:00.129Z,95869.87
2017-05-24T01:23:26.361Z,95871.61
2017-05-24T01:25:53.511Z,95874.41
2017-05-24T01:28:20.465Z,95879.85
2017-05-24T01:30:46.650Z,95885.28
2017-05-24T01:33:13.002Z,95882.31
2017-05-24T01:35:39.327Z,95884.22
2017-05-24T01:38:05.665Z,95889.88
2017-05-24T01:40:31.987Z,95887.23
2017-05-24T01:42:58.183Z,95886.13
2017-05-24T01:45:24.417Z,95896.64
2017-05-24T01:47:50.675Z,95897.60
2017-05-24T01:50:16.899Z,95895.17
2017-05-24T01:52:43.094Z,95894.44
2017-05-24T01:55:10.337Z,95903.64
2017-05-24T01:57:40.540Z,95903.65
2017-05-24T02:00:06.719Z,95900.08
2017-05-24T02:02:33.162Z,95897.44
2017-05-24T02:05:03.009Z,95903.97
2017-05-24T02:07:30.046Z,95901.34
2017-05-24T02:09:56.334Z,95903.22
2017-05-24T02:12:22.593Z,95909.97
2017-05-24T02:14:48.859Z,95907.72
2017-05-24T02:17:18.865Z,95903.01
2017-05-24T02:19:48.473Z,95903.02
2017-05-24T02:22:14.766Z,95906.59
2017-05-24T02:24:44.680Z,95904.89
2017-05-24T02:27:10.858Z,95898.92
2017-05-24T02:29:40.971Z,95905.16
2017-05-24T02:32:07.261Z,95898.60
2017-05-24T02:34:36.916Z,95904.44
2017-05-24T02:37:03.138Z,95906.13
2017-05-24T02:39:29.314Z,95907.80
2017-05-24T02:41:55.582Z,95903.89
2017-05-24T02:44:21.746Z,95904.45
2017-05-24T02:46:48.749Z,95902.02
2017-05-24T02:49:14.946Z,95909.14
2017-05-24T02:51:41.077Z,95911.78
2017-05-24T02:54:12.054Z,95914.21
2017-05-24T02:56:38.252Z,95918.69
2017-05-24T02:59:04.499Z,95919.08
2017-05-24T03:01:30.789Z,95920.37
2017-05-24T03:03:57.066Z,95916.83
2017-05-24T03:06:23.330Z,95921.09
2017-05-24T03:08:49.526Z,95923.36
2017-05-24T03:11:15.761Z,95916.03
2017-05-24T03:13:41.982Z,95920.88
2017-05-24T03:16:08.302Z,95921.63
2017-05-24T03:18:34.575Z,95922.56
2017-05-24T03:21:00.847Z,95924.45
2017-05-24T03:23:27.067Z,95924.63
2017-05-24T03:25:53.258Z,95930.25
2017-05-24T03:28:19.473Z,95932.88
2017-05-24T03:30:45.746Z,95939.63
2017-05-24T03:33:15.010Z,95932.69
2017-05-24T03:35:44.487Z,95933.25
2017-05-24T03:38:10.714Z,95932.89
2017-05-24T03:40:36.870Z,95945.66
2017-05-24T03:43:03.882Z,95951.09
2017-05-24T03:45:30.189Z,95953.89
2017-05-24T03:47:56.463Z,95956.14
2017-05-24T03:50:26.619Z,95960.84
2017-05-24T03:52:53.021Z,95967.95
2017-05-24T03:55:19.240Z,95969.09
2017-05-24T03:57:45.474Z,95972.09
2017-05-24T04:00:11.758Z,95972.84
2017-05-24T04:02:37.923Z,95983.53
2017-05-24T04:05:04.159Z,95983.52
2017-05-24T04:07:31.686Z,95982.77
2017-05-24T04:10:02.104Z,95988.39
2017-05-24T04:12:28.404Z,95987.25
2017-05-24T04:14:58.529Z,95992.30
2017-05-24T04:17:24.770Z,95990.06
2017-05-24T04:19:54.443Z,95992.48
2017-05-24T04:22:20.735Z,95990.02
2017-05-24T04:24:50.938Z,95991.90
2017-05-24T04:27:17.195Z,95995.83
2017-05-24T04:29:47.077Z,95991.10
2017-05-24T04:32:13.325Z,95990.13
2017-05-24T04:34:43.653Z,95994.64
2017-05-24T04:37:09.927Z,95995.02
2017-05-24T04:39:40.471Z,96001.59
2017-05-24T04:42:07.507Z,96006.64
2017-05-24T04:44:33.772Z,96007.98
2017-05-24T04:47:00.767Z,96010.38
2017-05-24T04:49:32.402Z,96007.16
2017-05-24T04:51:58.952Z,96016.16
2017-05-24T04:54:25.205Z,96018.59
2017-05-24T04:56:54.833Z,96019.92
2017-05-24T04:59:21.082Z,96014.28
2017-05-24T05:01:47.325Z,96017.28
2017-05-24T05:04:13.529Z,96012.17
2017-05-24T05:06:39.975Z,96012.33
2017-05-24T05:09:06.190Z,96015.30
2017-05-24T05:11:33.189Z,96010.73
2017-05-24T05:14:02.255Z,96010.30
2017-05-24T05:16:29.174Z,96010.80
2017-05-24T05:18:57.893Z,96010.77
2017-05-24T05:21:24.141Z,96009.19
2017-05-24T05:23:53.894Z,96005.18
2017-05-24T05:26:20.142Z,96010.99
2017-05-24T05:28:46.444Z,96014.87
2017-05-24T05:31:12.648Z,96021.98
2017-05-24T05:33:38.911Z,96028.80
2017-05-24T05:36:05.138Z,96032.80
2017-05-24T05:38:31.351Z,96035.84
2017-05-24T05:40:57.570Z,96042.27
2017-05-24T05:43:23.806Z,96047.18
2017-05-24T05:45:50.014Z,96045.87
2017-05-24T05:48:16.274Z,96039.78
2017-05-24T05:50:42.534Z,96045.09
2017-05-24T05:53:08.754Z,96049.53
2017-05-24T05:55:34.990Z,96051.94
2017-05-24T05:58:01.222Z,96057.50
2017-05-24T06:00:27.409Z,96055.23
2017-05-24T06:02:53.710Z,96060.91
2017-05-24T06:05:20.007Z,96064.19
2017-05-24T06:07:46.158Z,96076.45
2017-05-24T06:10:15.496Z,96071.41
2017-05-24T06:12:41.693Z,96066.50
2017-05-24T06:15:07.928Z,96074.95
2017-05-24T06:17:34.199Z,96071.57
2017-05-24T06:20:00.430Z,96071.26
2017-05-24T06:22:26.751Z,96070.51
2017-05-24T06:24:53.067Z,96078.19
2017-05-24T06:27:19.338Z,96076.95
2017-05-24T06:29:45.643Z,96078.31
2017-05-24T06:32:11.925Z,96075.58
2017-05-24T06:34:43.581Z,96088.23
2017-05-24T06:37:10.859Z,96089.50
2017-05-24T06:39:38.443Z,96088.92
2017-05-24T06:42:04.930Z,96092.81
2017-05-24T06:44:31.812Z,96091.97
2017-05-24T06:46:58.348Z,96099.58
2017-05-24T06:49:25.617Z,96108.58
2017-05-24T06:51:51.929Z,96103.80
2017-05-24T06:54:23.257Z,96097.91
2017-05-24T06:56:49.620Z,96095.83
2017-05-24T06:59:15.918Z,96099.03
2017-05-24T07:01:42.164Z,96098.45
2017-05-24T07:04:08.371Z,96099.36
2017-05-24T07:06:34.641Z,96110.03
2017-05-24T07:09:01.675Z,96107.08
2017-05-24T07:11:29.345Z,96099.58
2017-05-24T07:13:56.505Z,96096.63
2017-05-24T07:16:22.710Z,96106.91
2017-05-24T07:18:49.891Z,96113.61
2017-05-24T07:21:32.950Z,96102.48
2017-05-24T07:23:59.278Z,96101.85
2017-05-24T07:26:29.471Z,96103.02
2017-05-24T07:28:55.635Z,96100.59
2017-05-24T07:31:22.737Z,96106.19
2017-05-24T07:33:49.076Z,96106.97
2017-05-24T07:36:15.406Z,96099.05
2017-05-24T07:38:41.662Z,96101.70
2017-05-24T07:41:07.922Z,96105.22
2017-05-24T07:43:34.107Z,96106.18
2017-05-24T07:46:00.354Z,96106.04
2017-05-24T07:48:26.622Z,96107.41
2017-05-24T07:50:52.874Z,96109.55
2017-05-24T07:53:19.889Z,96116.69
2017-05-24T07:55:46.070Z,96111.19
2017-05-24T07:58:13.078Z,96116.25
2017-05-24T08:00:39.270Z,96108.38
2017-05-24T08:03:05.514Z,96112.03
2017-05-24T08:05:31.864Z,96110.70
2017-05-24T08:07:58.819Z,96109.39
2017-05-24T08:10:25.102Z,96110.06
2017-05-24T08:12:51.377Z,96113.22
2017-05-24T08:15:17.606Z,96110.75
2017-05-24T08:17:47.013Z,96118.55
2017-05-24T08:20:13.264Z,96106.17
2017-05-24T08:22:39.517Z,96100.91
2017-05-24T08:25:06.658Z,96103.08
2017-05-24T08:27:32.946Z,96103.41
2017-05-24T08:29:59.242Z,96107.88
2017-05-24T08:32:26.505Z,96100.94
2017-05-24T08:34:52.711Z,96108.67
2017-05-24T08:37:18.894Z,96097.10
2017-05-24T08:39:45.190Z,96098.69
2017-05-24T08:42:11.477Z,96107.00
2017-05-24T08:44:37.755Z,96101.53
2017-05-24T08:47:03.996Z,96101.38
2017-05-24T08:49:30.926Z,96116.91
2017-05-24T08:51:57.171Z,96109.87
2017-05-24T08:54:24.108Z,96109.52
2017-05-24T08:56:50.361Z,96105.19
2017-05-24T08:59:22.029Z,96104.84
2017-05-24T09:01:48.443Z,96106.72
2017-05-24T09:04:14.716Z,96108.82
2017-05-24T09:06:40.929Z,96109.66
2017-05-24T09:09:07.159Z,96116.78
2017-05-24T09:11:33.367Z,96124.36
2017-05-24T09:13:59.629Z,96121.77
2017-05-24T09:16:25.862Z,96124.40
2017-05-24T09:18:52.095Z,96125.53
2017-05-24T09:21:18.322Z,96122.62
2017-05-24T09:23:44.556Z,96116.84
2017-05-24T09:26:10.802Z,96111.95
2017-05-24T09:28:37.070Z,96119.16
2017-05-24T09:31:04.530Z,96100.31
2017-05-24T09:33:30.746Z,96095.91
2017-05-24T09:35:56.951Z,96101.34
2017-05-24T09:38:23.321Z,96096.61
2017-05-24T09:40:51.362Z,96106.92
2017-05-24T09:43:18.020Z,96105.00
2017-05-24T09:45:44.226Z,96103.23
2017-05-24T09:48:10.502Z,96111.60
2017-05-24T09:50:36.850Z,96108.91
2017-05-24T09:53:03.055Z,96109.58
2017-05-24T09:55:29.210Z,96109.47
2017-05-24T09:57:55.458Z,96105.09
2017-05-24T10:00:21.675Z,96101.55
2017-05-24T10:02:48.044Z,96106.78
2017-05-24T10:05:14.347Z,96094.53
2017-05-24T10:07:41.403Z,96100.17
2017-05-24T10:10:08.319Z,96104.33
2017-05-24T10:12:34.608Z,96098.52
2017-05-24T10:15:00.874Z,96102.53
2017-05-24T10:17:27.043Z,96108.63
2017-05-24T10:19:53.267Z,96108.20
2017-05-24T10:22:27.138Z,96101.69
2017-05-24T10:24:53.749Z,96109.48
2017-05-24T10:27:20.057Z,96099.14
2017-05-24T10:29:46.296Z,96106.51
2017-05-24T10:32:13.234Z,96105.30
2017-05-24T10:34:39.437Z,96107.66
2017-05-24T10:37:05.754Z,96099.89
2017-05-24T10:39:31.963Z,96101.91
2017-05-24T10:42:04.287Z,96098.09
2017-05-24T10:44:30.540Z,96105.74
2017-05-24T10:46:56.900Z,96109.03
2017-05-24T10:49:23.826Z,96112.63
2017-05-24T10:51:50.106Z,96106.56
2017-05-24T10:54:16.415Z,96105.61
2017-05-24T10:56:42.642Z,96104.67
2017-05-24T10:59:08.883Z,96105.88
2017-05-24T11:01:39.204Z,96097.65
2017-05-24T11:04:05.480Z,96103.97
2017-05-24T11:06:31.774Z,96096.95
2017-05-24T11:08:58.040Z,96102.58
2017-05-24T11:11:24.262Z,96104.77
2017-05-24T11:13:51.511Z,96099.98
2017-05-24T11:16:18.121Z,96104.38
2017-05-24T11:18:46.449Z,96118.02
2017-05-24T11:21:13.483Z,96109.11
2017-05-24T11:23:39.774Z,96114.80
2017-05-24T11:26:06.092Z,96123.86
2017-05-24T11:28:32.356Z,96119.55
2017-05-24T11:30:59.545Z,96126.11
2017-05-24T11:33:25.824Z,96116.91
2017-05-24T11:35:52.159Z,96111.80
2017-05-24T11:38:18.462Z,96100.42
2017-05-24T11:40:44.691Z,96095.78
2017-05-24T11:43:10.915Z,96097.69
2017-05-24T11:45:37.878Z,96094.93
2017-05-24T11:48:04.110Z,96096.47
2017-05-24T11:50:30.363Z,96097.56
2017-05-24T11:52:56.730Z,96097.25
2017-05-24T11:55:23.086Z,96098.80
2017-05-24T11:57:49.409Z,96081.86
2017-05-24T12:00:15.694Z,96084.28
2017-05-24T12:02:41.928Z,96071.83
2017-05-24T12:05:08.162Z,96070.80
2017-05-24T12:07:34.399Z,96071.67
2017-05-24T12:10:00.615Z,96064.57
2017-05-24T12:12:27.307Z,96072.67
2017-05-24T12:14:53.694Z,96068.20
2017-05-24T12:17:19.935Z,96065.78
2017-05-24T12:19:46.198Z,96066.12
2017-05-24T12:22:12.450Z,96056.22
2017-05-24T12:24:38.682Z,96068.72
2017-05-24T12:27:05.396Z,96070.45
2017-05-24T12:29:31.605Z,96064.23
2017-05-24T12:31:57.890Z,96068.59
2017-05-24T12:34:24.123Z,96069.34
2017-05-24T12:36:50.287Z,96068.09
2017-05-24T12:39:16.575Z,96070.88
2017-05-24T12:41:42.815Z,96079.23
2017-05-24T12:44:09.065Z,96074.61
2017-05-24T12:46:35.270Z,96075.70
2017-05-24T12:49:01.489Z,96081.13
2017-05-24T12:51:27.730Z,96083.56
2017-05-24T12:53:53.982Z,96083.69
2017-05-24T12:56:20.307Z,96081.81
2017-05-24T12:58:46.554Z,96082.53
2017-05-24T13:01:12.811Z,96076.98
2017-05-24T13:03:39.037Z,96075.78
2017-05-24T13:06:06.149Z,96079.50
2017-05-24T13:08:38.076Z,96078.55
2017-05-24T13:11:04.578Z,96084.31
2017-05-24T13:13:30.806Z,96069.23
2017-05-24T13:15:57.766Z,96070.63
2017-05-24T13:18:24.052Z,96080.80
2017-05-24T13:20:50.330Z,96074.34
2017-05-24T13:23:16.626Z,96072.58
2017-05-24T13:25:42.926Z,96075.82
2017-05-24T13:28:09.171Z,96083.48
2017-05-24T13:30:41.805Z,96081.09
2017-05-24T13:33:08.762Z,96085.77
2017-05-24T13:35:35.001Z,96086.84
2017-05-24T13:38:01.230Z,96078.43
2017-05-24T13:40:27.548Z,96068.05
2017-05-24T13:42:53.852Z,96069.22
2017-05-24T13:45:20.151Z,96071.61
2017-05-24T13:47:46.404Z,96059.34
2017-05-24T13:50:12.634Z,96066.23
2017-05-24T13:52:39.667Z,96066.11
2017-05-24T13:55:05.905Z,96066.22
2017-05-24T13:57:32.843Z,96068.52
2017-05-24T13:59:59.808Z,96065.28
2017-05-24T14:02:26.846Z,96065.84
2017-05-24T14:04:53.049Z,96065.06
2017-05-24T14:07:19.363Z,96063.07
2017-05-24T14:09:45.549Z,96053.37
2017-05-24T14:12:15.459Z,96054.48
2017-05-24T14:14:41.765Z,96067.94
2017-05-24T14:17:08.122Z,96060.61
2017-05-24T14:19:34.628Z,96064.37
2017-05-24T14:22:00.931Z,96065.05
2017-05-24T14:24:27.191Z,96063.36
2017-05-24T14:26:53.479Z,96063.16
2017-05-24T14:29:19.726Z,96060.77
2017-05-24T14:31:45.976Z,96057.09
2017-05-24T14:34:12.191Z,96054.19
2017-05-24T14:36:38.447Z,96060.08
2017-05-24T14:39:04.670Z,96052.78
2017-05-24T14:41:30.903Z,96057.05
2017-05-24T14:43:57.150Z,96056.98
2017-05-24T14:46:23.379Z,96049.48
2017-05-24T14:48:50.335Z,96049.89
2017-05-24T14:51:17.286Z,96051.05
2017-05-24T14:53:43.513Z,96048.45
2017-05-24T14:56:10.466Z,96049.88
2017-05-24T14:58:36.678Z,96051.53
2017-05-24T15:01:02.955Z,96046.44
2017-05-24T15:03:30.102Z,96048.83
2017-05-24T15:05:56.428Z,96049.23
2017-05-24T15:08:22.651Z,96051.11
2017-05-24T15:10:48.885Z,96049.42
2017-05-24T15:13:15.145Z,96045.48
2017-05-24T15:15:42.391Z,96045.31
2017-05-24T15:18:09.424Z,96042.88
2017-05-24T15:20:35.653Z,96042.04
2017-05-24T15:23:01.938Z,96042.20
2017-05-24T15:25:28.175Z,96036.13
2017-05-24T15:27:54.694Z,96044.65
2017-05-24T15:30:20.914Z,96039.23
2017-05-24T15:32:47.187Z,96035.47
2017-05-24T15:35:13.388Z,96028.17
2017-05-24T15:37:39.776Z,96030.90
2017-05-24T15:40:06.065Z,96030.77
2017-05-24T15:42:33.170Z,96035.81
2017-05-24T15:44:59.493Z,96036.42
2017-05-24T15:47:28.501Z,96029.83
2017-05-24T15:49:54.923Z,96031.60
2017-05-24T15:52:21.297Z,96029.94
2017-05-24T15:54:48.582Z,96034.28
2017-05-24T15:57:14.810Z,96037.39
2017-05-24T15:59:41.919Z,96039.60
2017-05-24T16:02:08.297Z,96043.61
2017-05-24T16:04:34.564Z,96046.08
2017-05-24T16:07:00.818Z,96041.28
2017-05-24T16:09:27.020Z,96042.70
2017-05-24T16:11:53.958Z,96034.73
2017-05-24T16:14:20.203Z,96034.98
2017-05-24T16:16:46.469Z,96034.56
2017-05-24T16:19:12.662Z,96040.32
2017-05-24T16:21:38.932Z,96037.23
2017-05-24T16:24:05.144Z,96038.75
2017-05-24T16:26:31.397Z,96039.09
2017-05-24T16:28:57.718Z,96030.19
2017-05-24T16:31:24.004Z,96028.75
2017-05-24T16:33:50.279Z,96030.94
2017-05-24T16:36:16.514Z,96029.81
2017-05-24T16:38:42.779Z,96031.78
2017-05-24T16:41:09.979Z,96027.48
2017-05-24T16:43:36.285Z,96024.37
2017-05-24T16:46:02.587Z,96021.31
2017-05-24T16:48:28.814Z,96020.91
2017-05-24T16:50:55.009Z,96026.04
2017-05-24T16:53:21.293Z,96031.56
2017-05-24T16:55:48.239Z,96034.01
2017-05-24T16:58:15.207Z,96039.50
2017-05-24T17:00:44.810Z,96043.81
2017-05-24T17:03:11.135Z,96044.08
2017-05-24T17:05:37.359Z,96041.52
2017-05-24T17:08:03.651Z,96043.45
2017-05-24T17:10:29.984Z,96040.70
2017-05-24T17:12:56.266Z,96037.42
2017-05-24T17:15:23.241Z,96039.49
2017-05-24T17:17:49.477Z,96040.11
2017-05-24T17:20:15.919Z,96042.38
2017-05-24T17:22:57.086Z,96038.86
2017-05-24T17:25:23.323Z,96046.66
2017-05-24T17:27:50.373Z,96046.34
2017-05-24T17:30:16.603Z,96045.86
2017-05-24T17:32:43.683Z,96044.56
2017-05-24T17:35:09.899Z,96047.18
2017-05-24T17:37:36.097Z,96049.44
2017-05-24T17:40:02.435Z,96051.78
2017-05-24T17:42:34.579Z,96050.11
2017-05-24T17:45:00.773Z,96056.92
2017-05-24T17:47:26.974Z,96055.42
2017-05-24T17:49:53.271Z,96059.59
2017-05-24T17:52:20.265Z,96070.52
2017-05-24T17:54:46.485Z,96074.09
2017-05-24T17:57:12.833Z,96067.18
2017-05-24T17:59:39.279Z,96062.88
2017-05-24T18:02:06.268Z,96062.51
2017-05-24T18:04:32.557Z,96063.66
2017-05-24T18:06:58.821Z,96057.67
2017-05-24T18:09:25.033Z,96057.12
2017-05-24T18:11:51.263Z,96065.42
2017-05-24T18:14:17.698Z,96066.93
2017-05-24T18:16:43.921Z,96062.98
2017-05-24T18:19:10.149Z,96065.23
2017-05-24T18:21:36.435Z,96060.34
2017-05-24T18:24:03.856Z,96062.99
2017-05-24T18:26:30.103Z,96061.69
2017-05-24T18:28:56.724Z,96061.90
2017-05-24T18:31:22.983Z,96059.82
2017-05-24T18:33:49.229Z,96065.49
2017-05-24T18:36:15.410Z,96058.55
2017-05-24T18:38:41.682Z,96056.68
2017-05-24T18:41:07.951Z,96064.41
2017-05-24T18:43:34.146Z,96058.59
2017-05-24T18:46:00.335Z,96055.23
2017-05-24T18:48:26.731Z,96055.26
2017-05-24T18:50:52.914Z,96055.09
2017-05-24T18:53:19.203Z,96060.80
2017-05-24T18:55:45.473Z,96064.19
2017-05-24T18:58:11.671Z,96063.64
2017-05-24T19:00:38.630Z,96064.28
2017-05-24T19:03:05.047Z,96062.27
2017-05-24T19:05:31.287Z,96062.25
2017-05-24T19:07:57.554Z,96064.86
2017-05-24T19:10:23.750Z,96070.51
2017-05-24T19:12:50.010Z,96065.06
2017-05-24T19:15:16.275Z,96075.94
2017-05-24T19:17:45.556Z,96073.91
2017-05-24T19:20:12.952Z,96065.80
2017-05-24T19:22:39.938Z,96074.73
2017-05-24T19:25:06.562Z,96078.04
2017-05-24T19:27:35.936Z,96076.30
2017-05-24T19:30:02.139Z,96083.00
2017-05-24T19:32:28.468Z,96087.81
2017-05-24T19:34:54.677Z,96093.05
2017-05-24T19:37:20.939Z,96095.48
2017-05-24T19:39:48.078Z,96101.08
2017-05-24T19:42:14.505Z,96107.08
2017-05-24T19:44:41.419Z,96100.52
2017-05-24T19:47:07.767Z,96113.63
2017-05-24T19:49:34.037Z,96114.56
2017-05-24T19:52:00.427Z,96124.88
2017-05-24T19:54:27.421Z,96131.59
2017-05-24T19:56:54.350Z,96133.33
2017-05-24T19:59:22.067Z,96140.34
2017-05-24T20:01:48.599Z,96140.14
2017-05-24T20:04:14.821Z,96139.16
2017-05-24T20:06:41.038Z,96143.02
2017-05-24T20:09:11.772Z,96137.34
2017-05-24T20:11:38.092Z,96135.74
2017-05-24T20:14:04.366Z,96134.76
2017-05-24T20:16:30.809Z,96122.70
2017-05-24T20:18:57.066Z,96121.16
2017-05-24T20:21:23.254Z,96119.38
2017-05-24T20:23:55.588Z,96124.36
2017-05-24T20:26:21.962Z,96122.65
2017-05-24T20:28:48.242Z,96124.13
2017-05-24T20:31:14.539Z,96130.83
2017-05-24T20:33:40.733Z,96128.23
2017-05-24T20:36:06.947Z,96125.45
2017-05-24T20:38:33.199Z,96122.65
2017-05-24T20:40:59.416Z,96126.97
2017-05-24T20:43:25.619Z,96123.63
2017-05-24T20:45:51.964Z,96125.14
2017-05-24T20:48:18.930Z,96123.64
2017-05-24T20:50:49.215Z,96119.49
2017-05-24T20:53:16.158Z,96122.65
2017-05-24T20:55:42.434Z,96116.84
2017-05-24T20:58:08.894Z,96115.91
2017-05-24T21:00:35.117Z,96120.38
2017-05-24T21:03:02.407Z,96115.52
2017-05-24T21:05:28.766Z,96108.22
2017-05-24T21:07:55.107Z,96121.28
2017-05-24T21:10:21.287Z,96115.83
2017-05-24T21:12:47.481Z,96112.13
2017-05-24T21:15:13.806Z,96111.39
2017-05-24T21:17:40.094Z,96102.26
2017-05-24T21:20:06.414Z,96107.32
2017-05-24T21:22:32.662Z,96114.59
2017-05-24T21:24:58.888Z,96107.67
2017-05-24T21:27:25.097Z,96117.73
2017-05-24T21:29:51.391Z,96117.36
2017-05-24T21:32:25.681Z,96113.08
2017-05-24T21:34:51.920Z,96114.56
2017-05-24T21:37:18.355Z,96112.69
2017-05-24T21:39:45.302Z,96119.72
2017-05-24T21:42:12.250Z,96121.39
2017-05-24T21:44:38.653Z,96121.19
2017-05-24T21:47:07.839Z,96119.85
2017-05-24T21:49:34.012Z,96120.73
2017-05-24T21:52:00.334Z,96122.41
2017-05-24T21:54:27.563Z,96121.27
2017-05-24T21:56:53.737Z,96126.41
2017-05-24T21:59:20.033Z,96129.19
2017-05-24T22:01:46.231Z,96127.11
2017-05-24T22:04:14.036Z,96132.91
2017-05-24T22:06:40.229Z,96127.13
2017-05-24T22:09:06.421Z,96127.30
2017-05-24T22:11:32.719Z,96128.81
2017-05-24T22:13:59.765Z,96128.23
2017-05-24T22:16:25.945Z,96128.40
2017-05-24T22:18:52.320Z,96120.70
2017-05-24T22:21:18.658Z,96127.52
2017-05-24T22:23:45.287Z,96127.42
2017-05-24T22:26:11.623Z,96122.83
2017-05-24T22:28:38.903Z,96125.12
2017-05-24T22:31:05.116Z,96120.30
2017-05-24T22:33:35.643Z,96124.13
2017-05-24T22:36:01.881Z,96115.68
2017-05-24T22:38:29.852Z,96117.62
2017-05-24T22:40:56.094Z,96107.66
2017-05-24T22:43:23.660Z,96113.57
2017-05-24T22:45:49.883Z,96105.58
2017-05-24T22:48:17.155Z,96113.94
2017-05-24T22:50:46.759Z,96112.67
2017-05-24T22:53:13.910Z,96109.73
2017-05-24T22:55:41.191Z,96109.66
2017-05-24T22:58:08.121Z,96112.63
2017-05-24T23:00:34.382Z,96108.49
2017-05-24T23:03:00.590Z,96115.92
2017-05-24T23:05:27.654Z,96112.83
2017-05-24T23:07:53.971Z,96116.34
2017-05-24T23:10:20.130Z,96113.71
2017-05-24T23:12:46.333Z,96113.09
2017-05-24T23:15:16.793Z,96112.31
2017-05-24T23:17:43.730Z,96112.33
2017-05-24T23:20:25.938Z,96122.33
2017-05-24T23:22:52.158Z,96116.05
2017-05-24T23:25:22.223Z,96119.91
2017-05-24T23:27:48.450Z,96115.02
2017-05-24T23:30:14.648Z,96116.47
2017-05-24T23:32:40.899Z,96116.13
2017-05-24T23:35:10.804Z,96116.65
2017-05-24T23:37:37.991Z,96119.40
2017-05-24T23:40:08.247Z,96116.04
2017-05-24T23:42:34.578Z,96112.28
2017-05-24T23:45:05.875Z,96110.02
2017-05-24T23:47:32.414Z,96109.47
2017-05-24T23:49:58.708Z,96118.02
2017-05-24T23:52:24.980Z,96107.01
2017-05-24T23:54:55.726Z,96105.45
2017-05-24T23:57:22.022Z,96104.52
2017-05-24T23:59:51.641Z,96100.70
